Route Details

Aircraft Information
Group: North America Fleet
Types: B738, B752, B762, B763
Route Data
Distance: 594nm
Duration: 2h 14m
Origin METAR: KBWI 160054Z 30005KT 10SM FEW050 FEW120 SCT250 21/17 A2995 RMK AO2 SLP142 T02110172
Dest. METAR: KRFD 160054Z 05003KT 10SM SCT100 OVC250 22/17 A3009 RMK AO2 SLP188 T02220167 $
Freight Data
(for Aug 16, 2022)
Load Factor:
54%
Manifested Cargo: 64,829lbs
Financial History
Total Freight: 680,199lbs
Average Load: 0lbs/flt
Fuel Used: 145,738lbs
Avg. Fuel Used: 0lbs/flt
Fuel Expense: $71,446
Avg. Fuel Expense: $0
Avg. Fuel Cost: $0/lbs
Total Gross Income: $1,506,375
Pilot Pay: $1,652
Total Expenses: $175,507
Total Revenue: $1,256,097
Average Revenue: $0

Capitol Logistics 306




KBWI
Baltimore/Washington International Airport
Baltimore, Maryland
KRFD
Chicago/Rockford International Airport
Rockford, Illinois